Time;durP1;ratioP1;P1;durP2;ratioP2;P2;SDS_P1;SDS_P2;PMS_P1;PMS_P2;Temp;Humidity;BMP_temperature;BMP_pressure;BME280_temperature;BME280_humidity;BME280_pressure;Samples;Min_cycle;Max_cycle;Signal;HPM_P1;HPM_P2
2023/03/09 00:01:30;;;;;;;1.50;0.52;;;12.30;99.90;;;;;;5023350;28;20045;-77
2023/03/09 00:03:57;;;;;;;1.42;0.70;;;12.30;99.90;;;;;;5024330;28;20060;-83
2023/03/09 00:06:25;;;;;;;0.85;0.70;;;12.30;99.90;;;;;;5024778;28;20084;-81
2023/03/09 00:08:52;;;;;;;1.83;1.00;;;12.30;99.90;;;;;;5015308;28;20052;-82
2023/03/09 00:11:19;;;;;;;2.22;1.00;;;12.20;99.90;;;;;;5017294;28;20038;-82
2023/03/09 00:13:49;;;;;;;1.73;0.90;;;12.20;99.90;;;;;;5014103;28;20106;-81
2023/03/09 00:16:22;;;;;;;2.07;1.00;;;12.10;99.90;;;;;;5017419;28;20053;-82
2023/03/09 00:18:51;;;;;;;1.25;0.60;;;12.10;99.90;;;;;;5011280;28;20129;-81
2023/03/09 00:21:36;;;;;;;2.60;0.77;;;12.00;99.90;;;;;;5019533;28;20084;-81
2023/03/09 00:24:24;;;;;;;0.88;0.65;;;12.00;99.90;;;;;;5013833;28;20334;-81
2023/03/09 00:27:00;;;;;;;1.02;0.60;;;11.90;99.90;;;;;;5015644;28;20497;-81
2023/03/09 00:29:29;;;;;;;4.75;0.73;;;11.90;99.90;;;;;;5019372;28;20045;-80
2023/03/09 00:31:58;;;;;;;3.38;0.88;;;11.90;99.90;;;;;;5021180;28;20050;-81
2023/03/09 00:34:24;;;;;;;4.47;0.90;;;11.90;99.90;;;;;;5031218;28;20054;-81
2023/03/09 00:36:51;;;;;;;2.65;0.80;;;11.90;99.90;;;;;;5021596;28;20049;-81
2023/03/09 00:39:18;;;;;;;3.63;0.93;;;11.90;99.90;;;;;;5020396;28;20046;-82
2023/03/09 00:41:44;;;;;;;2.83;1.13;;;11.90;99.90;;;;;;5020596;28;20141;-81
2023/03/09 00:44:12;;;;;;;2.13;0.93;;;11.90;99.90;;;;;;5019960;28;20073;-81
2023/03/09 00:46:40;;;;;;;3.20;0.80;;;11.90;99.90;;;;;;5015542;28;20069;-81
2023/03/09 00:49:10;;;;;;;2.47;0.80;;;11.90;99.90;;;;;;5020334;28;20048;-81
2023/03/09 00:51:37;;;;;;;;;;;11.90;99.90;;;;;;5022230;28;20049;-82
2023/03/09 00:54:05;;;;;;;1.85;0.80;;;11.90;99.90;;;;;;5023270;28;20011;-80
2023/03/09 00:56:31;;;;;;;1.90;0.80;;;11.90;99.90;;;;;;5015328;28;20045;-81
2023/03/09 00:58:58;;;;;;;3.55;1.00;;;12.00;99.90;;;;;;5017153;28;20137;-82
2023/03/09 01:01:26;;;;;;;3.13;1.00;;;12.00;99.90;;;;;;5012861;28;20050;-80
2023/03/09 01:03:53;;;;;;;1.20;0.80;;;12.10;99.90;;;;;;5016183;28;20046;-81
2023/03/09 01:06:23;;;;;;;3.05;0.70;;;12.10;99.90;;;;;;5017599;28;20050;-81
2023/03/09 01:08:50;;;;;;;7.18;2.45;;;12.10;99.90;;;;;;5021001;28;20101;-81
2023/03/09 01:11:17;;;;;;;1.45;0.90;;;12.10;99.90;;;;;;5010829;28;20078;-81
2023/03/09 01:13:45;;;;;;;4.32;1.45;;;12.10;99.90;;;;;;5024843;28;20520;-81
2023/03/09 01:16:12;;;;;;;2.88;0.82;;;12.20;99.90;;;;;;5011621;28;20057;-81
2023/03/09 01:18:39;;;;;;;3.25;0.90;;;12.20;99.90;;;;;;5021038;28;20155;-81
2023/03/09 01:21:06;;;;;;;4.20;1.20;;;12.20;99.90;;;;;;5021733;28;20050;-82
2023/03/09 01:23:36;;;;;;;1.45;0.82;;;12.30;99.90;;;;;;5019726;28;20132;-81
2023/03/09 01:26:03;;;;;;;2.17;1.10;;;12.20;99.90;;;;;;5012542;28;20054;-81
2023/03/09 01:28:30;;;;;;;2.95;1.13;;;12.20;99.90;;;;;;5017498;28;20057;-82
2023/03/09 01:30:57;;;;;;;3.50;1.30;;;12.20;99.90;;;;;;5013288;28;20046;-81
2023/03/09 01:33:23;;;;;;;2.80;1.02;;;12.20;99.90;;;;;;5018266;28;20053;-81
2023/03/09 01:35:50;;;;;;;3.92;1.08;;;12.20;99.90;;;;;;5026203;28;20076;-81
2023/03/09 01:38:17;;;;;;;3.78;1.00;;;12.20;99.90;;;;;;5017352;28;20137;-80
2023/03/09 01:40:46;;;;;;;5.38;1.05;;;12.10;99.90;;;;;;5011431;28;20057;-80
2023/03/09 01:43:34;;;;;;;3.55;1.15;;;12.10;99.90;;;;;;5014932;28;20069;-81
2023/03/09 01:46:20;;;;;;;4.32;1.00;;;12.10;99.90;;;;;;5014960;28;20492;-81
2023/03/09 01:48:58;;;;;;;3.55;1.13;;;12.10;99.90;;;;;;5016192;28;20056;-81
2023/03/09 01:51:37;;;;;;;2.90;1.02;;;12.10;99.90;;;;;;5016688;28;20046;-81
2023/03/09 01:54:07;;;;;;;3.53;0.95;;;12.10;99.90;;;;;;5005614;28;20433;-81
2023/03/09 01:56:36;;;;;;;3.63;1.03;;;12.10;99.90;;;;;;5018065;28;20060;-81
2023/03/09 01:59:05;;;;;;;9.10;1.50;;;12.10;99.90;;;;;;5006330;28;20820;-83
2023/03/09 02:01:33;;;;;;;4.65;1.13;;;12.10;99.90;;;;;;5019884;28;20049;-81
2023/03/09 02:04:05;;;;;;;5.80;1.05;;;12.10;99.90;;;;;;5010576;28;20104;-83
2023/03/09 02:06:33;;;;;;;6.53;1.17;;;12.10;99.90;;;;;;5026137;28;20464;-79
2023/03/09 02:09:15;;;;;;;5.07;1.60;;;12.20;99.90;;;;;;5012178;28;20042;-84
2023/03/09 02:11:43;;;;;;;7.05;1.38;;;12.20;99.90;;;;;;5013371;28;20096;-81
2023/03/09 02:14:10;;;;;;;5.65;1.42;;;12.20;99.90;;;;;;5020902;28;20058;-81
2023/03/09 02:16:37;;;;;;;9.00;1.52;;;12.20;99.90;;;;;;5012565;28;20665;-81
2023/03/09 02:19:07;;;;;;;4.15;1.30;;;12.30;99.90;;;;;;5017491;28;20050;-82
2023/03/09 02:21:50;;;;;;;8.48;1.90;;;12.30;99.90;;;;;;5012743;28;20525;-83
2023/03/09 02:24:58;;;;;;;5.97;1.33;;;12.30;99.90;;;;;;5013158;28;20056;-81
2023/03/09 02:27:29;;;;;;;3.25;0.90;;;12.30;99.90;;;;;;4930392;29;20054;-81
2023/03/09 02:29:56;;;;;;;2.95;1.25;;;12.30;99.90;;;;;;4999263;28;20042;-79
2023/03/09 02:32:23;;;;;;;5.95;1.27;;;12.30;99.90;;;;;;5014854;28;20050;-81
2023/03/09 02:34:50;;;;;;;5.20;1.33;;;12.30;99.90;;;;;;5018858;28;20073;-81
2023/03/09 02:37:33;;;;;;;4.28;1.00;;;12.20;99.90;;;;;;5013474;28;20129;-81
2023/03/09 02:40:10;;;;;;;2.70;1.02;;;12.20;99.90;;;;;;5019138;28;20053;-81
2023/03/09 02:42:38;;;;;;;4.57;1.10;;;12.10;99.90;;;;;;5010760;28;20569;-81
2023/03/09 02:45:06;;;;;;;6.40;1.23;;;12.00;99.90;;;;;;5017710;28;20053;-81
2023/03/09 02:47:33;;;;;;;1.65;0.63;;;11.90;99.90;;;;;;5010937;28;20129;-82
2023/03/09 02:50:00;;;;;;;2.95;0.63;;;11.80;99.90;;;;;;5023198;28;20050;-81
2023/03/09 02:52:26;;;;;;;4.55;0.98;;;11.80;99.90;;;;;;5018323;28;20470;-82
2023/03/09 02:54:53;;;;;;;1.50;0.57;;;11.80;99.90;;;;;;5029051;28;20077;-81
2023/03/09 02:57:20;;;;;;;7.15;0.88;;;11.70;99.90;;;;;;5017240;28;20057;-81
2023/03/09 02:59:46;;;;;;;1.80;0.40;;;11.70;99.90;;;;;;5017378;28;20053;-81
2023/03/09 03:02:13;;;;;;;2.58;0.70;;;11.70;99.90;;;;;;5017382;28;20050;-80
2023/03/09 03:04:40;;;;;;;3.03;0.68;;;11.70;99.90;;;;;;5036303;28;20521;-81
2023/03/09 03:07:06;;;;;;;3.10;0.98;;;11.60;99.90;;;;;;5017766;28;20505;-81
2023/03/09 03:09:33;;;;;;;2.50;0.60;;;11.60;99.90;;;;;;5013538;28;20052;-82
2023/03/09 03:12:00;;;;;;;2.67;0.95;;;11.60;99.90;;;;;;5019898;28;20560;-79
2023/03/09 03:14:28;;;;;;;3.63;1.40;;;11.60;99.90;;;;;;5017271;28;20069;-80
2023/03/09 03:16:54;;;;;;;3.95;0.70;;;11.50;99.90;;;;;;5025530;28;20050;-82
2023/03/09 03:19:21;;;;;;;2.92;0.55;;;11.60;99.90;;;;;;5032930;28;20053;-81
2023/03/09 03:21:48;;;;;;;3.58;0.70;;;11.50;99.90;;;;;;5029171;28;20058;-80
2023/03/09 03:24:16;;;;;;;1.30;0.70;;;11.50;99.90;;;;;;5028351;28;20046;-81
2023/03/09 03:26:43;;;;;;;3.05;0.80;;;11.50;99.90;;;;;;5028875;28;20066;-81
2023/03/09 03:29:10;;;;;;;3.22;0.70;;;11.40;99.90;;;;;;5019907;28;20042;-80
2023/03/09 03:31:37;;;;;;;0.60;0.60;;;11.40;99.90;;;;;;5027391;28;20046;-80
2023/03/09 03:34:04;;;;;;;3.13;0.98;;;11.40;99.90;;;;;;5023700;28;20053;-80
2023/03/09 03:36:31;;;;;;;1.60;0.85;;;11.40;99.90;;;;;;5021483;28;20052;-80
2023/03/09 03:38:57;;;;;;;3.20;1.00;;;11.30;99.90;;;;;;5026018;28;20060;-82
2023/03/09 03:41:24;;;;;;;2.97;0.65;;;11.30;99.90;;;;;;5017681;28;20052;-79
2023/03/09 03:43:51;;;;;;;4.05;0.95;;;11.30;99.90;;;;;;5014434;28;20055;-81
2023/03/09 03:46:17;;;;;;;3.28;0.90;;;11.30;99.90;;;;;;5013745;28;20067;-83
2023/03/09 03:48:44;;;;;;;1.70;1.00;;;11.30;99.90;;;;;;5019953;28;20050;-80
2023/03/09 03:51:11;;;;;;;5.57;1.05;;;11.30;99.90;;;;;;5016473;28;20057;-80
2023/03/09 03:53:38;;;;;;;1.20;0.60;;;11.30;99.90;;;;;;5016674;28;20054;-83
2023/03/09 03:56:04;;;;;;;4.25;0.93;;;11.20;99.90;;;;;;5013383;28;20249;-80
2023/03/09 03:58:31;;;;;;;1.00;0.50;;;11.20;99.90;;;;;;5022577;28;20050;-81
2023/03/09 04:00:58;;;;;;;0.45;0.35;;;11.10;99.90;;;;;;5015717;28;20053;-81
2023/03/09 04:03:25;;;;;;;3.55;0.77;;;11.10;99.90;;;;;;5017462;28;20053;-81
2023/03/09 04:05:52;;;;;;;1.88;0.80;;;11.10;99.90;;;;;;5016115;28;20052;-81
2023/03/09 04:08:18;;;;;;;1.77;0.90;;;11.10;99.90;;;;;;5014475;28;20047;-83
2023/03/09 04:10:45;;;;;;;3.42;0.85;;;11.10;99.90;;;;;;5023254;28;20057;-80
2023/03/09 04:13:13;;;;;;;3.45;1.00;;;11.10;99.90;;;;;;5014454;28;20053;-82
2023/03/09 04:15:40;;;;;;;3.17;0.70;;;11.10;99.90;;;;;;5027135;28;20076;-81
2023/03/09 04:18:07;;;;;;;2.50;0.82;;;11.10;99.90;;;;;;5016670;28;20054;-81
2023/03/09 04:20:35;;;;;;;1.90;0.90;;;11.00;99.90;;;;;;5028865;28;20081;-81
2023/03/09 04:23:02;;;;;;;2.05;0.82;;;11.00;99.90;;;;;;5019508;28;20046;-81
2023/03/09 04:25:28;;;;;;;2.35;0.98;;;11.00;99.90;;;;;;5015016;28;20049;-78
2023/03/09 04:27:56;;;;;;;1.00;0.57;;;11.00;99.90;;;;;;5016071;28;20133;-82
2023/03/09 04:30:23;;;;;;;3.15;0.90;;;11.00;99.90;;;;;;5014572;28;20077;-81
2023/03/09 04:32:50;;;;;;;3.80;1.00;;;11.00;99.90;;;;;;5019063;28;20062;-81
2023/03/09 04:35:17;;;;;;;1.73;0.52;;;11.00;99.90;;;;;;5013483;28;20053;-81
2023/03/09 04:37:44;;;;;;;1.38;0.43;;;11.00;99.90;;;;;;5015016;28;20108;-80
2023/03/09 04:40:12;;;;;;;0.68;0.43;;;10.90;99.90;;;;;;5012889;28;20125;-81
2023/03/09 04:42:39;;;;;;;0.82;0.30;;;10.80;99.90;;;;;;5016172;28;20050;-81
2023/03/09 04:45:06;;;;;;;5.50;2.13;;;10.80;99.90;;;;;;5010330;28;20041;-83
2023/03/09 04:47:33;;;;;;;2.35;1.08;;;10.70;99.90;;;;;;5023607;28;20421;-82
2023/03/09 04:50:00;;;;;;;2.97;1.50;;;10.70;99.90;;;;;;5014173;28;20053;-83
2023/03/09 04:52:26;;;;;;;2.15;1.30;;;10.70;99.90;;;;;;5025009;28;20042;-81
2023/03/09 04:54:54;;;;;;;2.13;1.48;;;10.60;99.90;;;;;;5019011;28;20060;-81
2023/03/09 04:57:21;;;;;;;0.80;0.40;;;10.60;99.90;;;;;;5022345;28;20049;-81
2023/03/09 04:59:47;;;;;;;1.08;0.75;;;10.50;99.90;;;;;;5020083;28;20425;-81
2023/03/09 05:02:14;;;;;;;2.55;0.63;;;10.50;99.90;;;;;;5014337;28;20057;-81
2023/03/09 05:04:41;;;;;;;1.00;0.47;;;10.50;99.90;;;;;;5015052;28;20045;-81
2023/03/09 05:07:07;;;;;;;1.45;0.40;;;10.60;99.90;;;;;;5037749;28;20081;-81
2023/03/09 05:09:34;;;;;;;2.83;0.80;;;10.60;99.90;;;;;;5018203;28;20052;-80
2023/03/09 05:12:01;;;;;;;2.92;0.50;;;10.70;99.90;;;;;;5015447;28;20050;-81
2023/03/09 05:14:29;;;;;;;3.33;0.40;;;10.70;99.90;;;;;;5028671;28;20129;-80
2023/03/09 05:16:56;;;;;;;2.45;0.75;;;10.70;99.90;;;;;;5013577;28;20525;-81
2023/03/09 05:19:22;;;;;;;3.58;0.88;;;10.60;99.90;;;;;;5015582;28;20053;-81
2023/03/09 05:21:49;;;;;;;3.55;0.95;;;10.60;99.90;;;;;;5017060;28;20049;-82
2023/03/09 05:24:16;;;;;;;2.97;0.68;;;10.60;99.90;;;;;;5011705;28;20045;-81
2023/03/09 05:26:42;;;;;;;2.97;0.82;;;10.60;99.90;;;;;;5008907;28;20057;-81
2023/03/09 05:29:09;;;;;;;2.45;0.93;;;10.60;99.90;;;;;;5020391;28;20048;-81
2023/03/09 05:31:36;;;;;;;6.53;0.90;;;10.60;99.90;;;;;;5011327;28;20052;-82
2023/03/09 05:34:03;;;;;;;3.80;1.23;;;10.60;99.90;;;;;;5017867;28;20050;-82
2023/03/09 05:36:29;;;;;;;6.45;1.45;;;10.60;99.90;;;;;;5021901;28;20060;-81
2023/03/09 05:38:56;;;;;;;5.32;1.27;;;10.50;99.90;;;;;;5020071;28;20552;-82
2023/03/09 05:41:23;;;;;;;8.45;1.20;;;10.50;99.90;;;;;;5020667;28;20056;-81
2023/03/09 05:43:50;;;;;;;5.50;1.20;;;10.50;99.90;;;;;;5025775;28;20074;-83
2023/03/09 05:46:17;;;;;;;3.05;1.02;;;10.50;99.90;;;;;;5013460;28;20499;-82
2023/03/09 05:48:46;;;;;;;5.78;1.40;;;10.50;99.90;;;;;;5019409;28;20080;-81
2023/03/09 05:51:13;;;;;;;6.07;1.45;;;10.40;99.90;;;;;;5019601;28;20064;-80
2023/03/09 05:53:40;;;;;;;4.60;1.33;;;10.50;99.90;;;;;;5013466;28;20056;-81
2023/03/09 05:56:07;;;;;;;12.27;3.53;;;10.40;99.90;;;;;;5029205;28;20046;-83
2023/03/09 05:58:37;;;;;;;5.78;1.92;;;10.40;99.90;;;;;;5012798;28;20084;-81
2023/03/09 06:01:04;;;;;;;6.90;2.13;;;10.40;99.90;;;;;;5015569;28;20045;-81
2023/03/09 06:03:31;;;;;;;10.43;1.98;;;10.40;99.90;;;;;;5017436;28;20053;-82
2023/03/09 06:05:59;;;;;;;10.55;2.40;;;10.30;99.90;;;;;;5019362;28;20046;-82
2023/03/09 06:08:26;;;;;;;9.00;1.90;;;10.30;99.90;;;;;;5023007;28;20053;-82
2023/03/09 06:10:53;;;;;;;6.28;1.73;;;10.30;99.90;;;;;;5025254;28;20551;-83
2023/03/09 06:13:20;;;;;;;8.90;2.10;;;10.30;99.90;;;;;;5028800;28;20196;-82
2023/03/09 06:15:47;;;;;;;4.75;1.63;;;10.30;99.90;;;;;;5021784;28;20096;-81
2023/03/09 06:18:13;;;;;;;9.05;1.85;;;10.30;99.90;;;;;;5017068;28;20065;-82
2023/03/09 06:20:40;;;;;;;10.38;2.50;;;10.30;99.90;;;;;;5012573;28;20058;-80
2023/03/09 06:23:07;;;;;;;6.18;1.50;;;10.30;99.90;;;;;;5023685;28;20068;-81
2023/03/09 06:25:33;;;;;;;6.10;1.50;;;10.30;99.90;;;;;;5012490;28;20048;-82
2023/03/09 06:28:00;;;;;;;8.35;1.98;;;10.30;99.90;;;;;;5014324;28;20050;-82
2023/03/09 06:30:28;;;;;;;7.75;1.80;;;10.30;99.90;;;;;;5020427;28;20046;-81
2023/03/09 06:32:56;;;;;;;6.40;1.67;;;10.40;99.90;;;;;;5027857;28;20058;-82
2023/03/09 06:35:24;;;;;;;11.05;1.50;;;10.40;99.90;;;;;;5018301;28;20050;-82
2023/03/09 06:37:51;;;;;;;9.57;1.65;;;10.40;99.90;;;;;;5021874;28;20118;-80
2023/03/09 06:40:18;;;;;;;6.57;2.33;;;10.40;99.90;;;;;;5021733;28;20063;-81
2023/03/09 06:42:45;;;;;;;7.03;1.40;;;10.40;99.90;;;;;;5014931;28;21034;-81
2023/03/09 06:45:12;;;;;;;5.18;1.20;;;10.40;99.90;;;;;;5014714;28;20054;-81
2023/03/09 06:47:38;;;;;;;4.55;1.60;;;10.40;99.90;;;;;;5014787;28;20037;-82
2023/03/09 06:50:05;;;;;;;9.95;1.70;;;10.40;99.90;;;;;;5022537;28;20133;-82
2023/03/09 06:52:33;;;;;;;8.95;1.40;;;10.40;99.90;;;;;;5019756;28;20057;-82
2023/03/09 06:54:59;;;;;;;4.60;1.20;;;10.40;99.90;;;;;;5024941;28;20050;-81
2023/03/09 06:57:42;;;;;;;5.00;1.15;;;10.50;99.90;;;;;;5014447;28;20138;-79
2023/03/09 07:00:11;;;;;;;4.15;1.10;;;10.50;99.90;;;;;;5026179;28;20425;-81
2023/03/09 07:02:38;;;;;;;5.43;1.73;;;10.50;99.90;;;;;;5033980;28;20598;-82
2023/03/09 07:05:08;;;;;;;10.57;1.45;;;10.60;99.90;;;;;;5040445;28;20501;-81
2023/03/09 07:07:35;;;;;;;8.52;1.67;;;10.60;99.90;;;;;;5014581;28;20142;-80
2023/03/09 07:10:03;;;;;;;9.10;1.80;;;10.60;99.90;;;;;;5017549;28;20057;-81
2023/03/09 07:12:30;;;;;;;6.25;1.92;;;10.70;99.90;;;;;;5017897;28;20050;-81
2023/03/09 07:14:57;;;;;;;6.55;1.27;;;10.70;99.90;;;;;;5018247;28;20497;-81
2023/03/09 07:17:23;;;;;;;8.60;1.48;;;10.70;99.90;;;;;;5017826;28;20045;-81
2023/03/09 07:19:51;;;;;;;6.25;1.55;;;10.80;99.90;;;;;;5014637;28;20133;-80
2023/03/09 07:22:18;;;;;;;5.40;1.80;;;10.80;99.90;;;;;;5017463;28;20054;-81
2023/03/09 07:24:45;;;;;;;4.90;1.35;;;10.80;99.90;;;;;;5015571;28;20060;-81
2023/03/09 07:27:12;;;;;;;5.43;1.33;;;10.90;99.90;;;;;;5019288;28;20060;-81
2023/03/09 07:29:40;;;;;;;8.02;1.50;;;10.90;99.90;;;;;;5019982;28;20168;-82
2023/03/09 07:32:08;;;;;;;6.88;1.65;;;10.80;99.90;;;;;;5016991;28;20072;-82
2023/03/09 07:34:35;;;;;;;7.30;1.55;;;10.80;99.90;;;;;;5017271;28;20096;-81
2023/03/09 07:37:02;;;;;;;9.20;1.50;;;10.80;99.90;;;;;;5012300;28;20424;-77
2023/03/09 07:39:28;;;;;;;8.70;1.80;;;10.80;99.90;;;;;;5008528;28;20494;-79
2023/03/09 07:41:55;;;;;;;5.97;1.67;;;10.80;99.90;;;;;;5014346;28;20142;-79
2023/03/09 07:44:22;;;;;;;6.10;1.50;;;10.80;99.90;;;;;;5020311;28;20057;-79
2023/03/09 07:46:49;;;;;;;6.60;1.27;;;10.80;99.90;;;;;;5013618;28;20128;-80
2023/03/09 07:49:16;;;;;;;7.13;1.58;;;10.80;99.90;;;;;;5022217;28;20108;-78
2023/03/09 07:51:42;;;;;;;8.60;1.90;;;10.80;99.90;;;;;;5017287;28;20046;-79
2023/03/09 07:54:10;;;;;;;10.90;1.70;;;10.80;99.90;;;;;;5019917;28;20406;-80
2023/03/09 07:56:37;;;;;;;6.15;2.10;;;10.80;99.90;;;;;;5016347;28;20052;-80
2023/03/09 07:59:04;;;;;;;5.40;1.55;;;10.80;99.90;;;;;;5015880;28;20454;-79
2023/03/09 08:01:30;;;;;;;6.55;1.58;;;10.80;99.90;;;;;;5013449;28;20433;-77
2023/03/09 08:03:57;;;;;;;5.72;2.35;;;10.90;99.90;;;;;;5014335;28;20605;-80
2023/03/09 08:06:25;;;;;;;8.68;1.50;;;11.00;99.90;;;;;;5014177;28;20050;-79
2023/03/09 08:08:53;;;;;;;11.98;2.53;;;11.00;99.90;;;;;;5006339;28;20061;-79
2023/03/09 08:11:19;;;;;;;6.13;1.65;;;11.10;99.90;;;;;;5007480;28;20064;-79
2023/03/09 08:13:46;;;;;;;5.78;1.35;;;11.10;99.90;;;;;;5007507;28;20549;-79
2023/03/09 08:16:13;;;;;;;7.82;2.03;;;11.20;99.90;;;;;;5014002;28;20052;-79
2023/03/09 08:18:40;;;;;;;7.95;1.60;;;11.20;99.90;;;;;;5015118;28;20046;-83
2023/03/09 08:21:12;;;;;;;7.03;1.50;;;11.20;99.90;;;;;;5018289;28;20046;-82
2023/03/09 08:23:40;;;;;;;7.63;1.65;;;11.20;99.90;;;;;;5013553;28;20057;-81
2023/03/09 08:26:08;;;;;;;7.38;1.63;;;11.20;99.90;;;;;;5018255;28;20067;-81
2023/03/09 08:28:35;;;;;;;7.32;1.60;;;11.20;99.90;;;;;;5018881;28;20088;-82
2023/03/09 08:31:02;;;;;;;4.90;1.40;;;11.20;99.90;;;;;;5013031;28;20151;-81
2023/03/09 08:33:28;;;;;;;7.30;1.52;;;11.20;99.90;;;;;;5013278;28;20050;-80
2023/03/09 08:35:55;;;;;;;5.07;1.77;;;11.20;99.90;;;;;;5020937;28;20145;-82
2023/03/09 08:38:22;;;;;;;5.93;1.48;;;11.20;99.90;;;;;;5015873;28;20077;-81
2023/03/09 08:40:49;;;;;;;8.75;1.50;;;11.30;99.90;;;;;;5015055;28;20050;-79
2023/03/09 08:43:16;;;;;;;8.20;1.67;;;11.30;99.90;;;;;;5012518;28;20511;-80
2023/03/09 08:45:42;;;;;;;6.85;1.88;;;11.40;99.90;;;;;;5015128;28;20050;-80
2023/03/09 08:48:09;;;;;;;4.75;1.25;;;11.40;99.90;;;;;;5016116;28;20092;-81
2023/03/09 08:50:37;;;;;;;12.63;2.92;;;11.50;99.90;;;;;;5017423;28;20049;-80
2023/03/09 08:53:03;;;;;;;4.60;1.35;;;11.50;99.90;;;;;;5030937;28;20085;-80
2023/03/09 08:55:30;;;;;;;11.88;2.05;;;11.60;99.90;;;;;;5014856;28;20057;-80
2023/03/09 08:57:58;;;;;;;5.80;1.50;;;11.60;99.90;;;;;;5016652;28;20077;-80
2023/03/09 09:00:25;;;;;;;8.32;2.22;;;11.60;99.90;;;;;;5009981;28;20065;-80
2023/03/09 09:02:51;;;;;;;8.57;2.33;;;11.70;99.90;;;;;;5022655;28;20049;-80
2023/03/09 09:05:18;;;;;;;7.70;1.77;;;11.70;99.90;;;;;;5014927;28;20120;-79
2023/03/09 09:07:45;;;;;;;9.10;1.92;;;11.70;99.90;;;;;;5017742;28;20133;-80
2023/03/09 09:10:12;;;;;;;10.32;1.95;;;11.80;99.90;;;;;;5018903;28;20050;-81
2023/03/09 09:12:59;;;;;;;6.45;1.60;;;11.80;99.90;;;;;;5024913;28;20567;-81
2023/03/09 09:15:25;;;;;;;9.18;1.80;;;11.90;99.90;;;;;;5016923;28;20054;-78
2023/03/09 09:17:54;;;;;;;9.40;1.35;;;11.90;99.90;;;;;;5011682;28;20644;-80
2023/03/09 09:20:20;;;;;;;5.22;2.17;;;12.00;99.90;;;;;;5013162;28;20136;-81
2023/03/09 09:22:48;;;;;;;9.93;1.48;;;12.10;99.90;;;;;;5012031;28;20053;-82
2023/03/09 09:25:15;;;;;;;9.77;2.40;;;12.10;99.90;;;;;;5011430;28;20412;-79
2023/03/09 09:27:42;;;;;;;9.27;1.48;;;12.10;99.90;;;;;;5011248;28;20054;-78
2023/03/09 09:30:09;;;;;;;9.52;1.70;;;12.20;99.90;;;;;;5008163;28;20129;-77
2023/03/09 09:32:36;;;;;;;10.05;1.63;;;12.20;99.90;;;;;;5005207;28;20046;-79
2023/03/09 09:35:04;;;;;;;8.50;1.60;;;12.20;99.90;;;;;;5010750;28;20050;-78
2023/03/09 09:37:31;;;;;;;7.70;1.80;;;12.20;99.90;;;;;;5011782;28;20052;-77
2023/03/09 09:39:58;;;;;;;6.45;1.35;;;12.30;99.90;;;;;;5019078;28;20065;-78
2023/03/09 09:42:39;;;;;;;12.05;1.48;;;12.30;99.90;;;;;;5013961;28;20448;-80
2023/03/09 09:45:32;;;;;;;6.22;1.60;;;12.40;99.90;;;;;;5017030;28;20054;-79
2023/03/09 09:48:04;;;;;;;7.80;1.35;;;12.40;99.90;;;;;;5009790;28;20046;-78
2023/03/09 09:51:00;;;;;;;7.40;1.67;;;12.50;99.90;;;;;;5010973;28;20505;-78
2023/03/09 09:53:32;;;;;;;10.02;2.00;;;12.60;99.90;;;;;;5012166;28;20041;-78
2023/03/09 09:56:00;;;;;;;4.47;1.23;;;12.60;99.90;;;;;;5018074;28;22034;-78
2023/03/09 09:58:44;;;;;;;9.00;1.38;;;12.70;99.90;;;;;;5014758;28;20057;-79
2023/03/09 10:01:21;;;;;;;9.90;1.20;;;12.80;99.90;;;;;;5011859;28;20066;-79
2023/03/09 10:03:52;;;;;;;6.22;1.30;;;12.90;99.90;;;;;;5010628;28;20068;-80
2023/03/09 10:06:25;;;;;;;4.70;1.20;;;13.00;99.90;;;;;;5017153;28;20079;-79
2023/03/09 10:09:31;;;;;;;8.68;1.45;;;13.00;99.90;;;;;;5025902;28;20049;-76
2023/03/09 10:12:06;;;;;;;4.43;1.38;;;13.10;99.90;;;;;;5014342;28;20495;-78
2023/03/09 10:14:50;;;;;;;5.05;1.75;;;13.20;99.90;;;;;;5011240;28;20054;-79
2023/03/09 10:17:31;;;;;;;3.45;1.10;;;13.20;99.90;;;;;;5016010;28;20049;-78
2023/03/09 10:20:09;;;;;;;7.53;1.58;;;13.20;99.90;;;;;;5013871;28;20049;-79
2023/03/09 10:22:38;;;;;;;7.70;1.50;;;13.10;99.90;;;;;;5014594;28;20521;-78
2023/03/09 10:25:11;;;;;;;6.30;1.10;;;13.10;99.90;;;;;;5017100;28;20125;-78
2023/03/09 10:27:42;;;;;;;8.05;1.23;;;13.10;99.90;;;;;;5016964;28;20053;-79
2023/03/09 10:30:40;;;;;;;9.43;1.35;;;13.10;99.90;;;;;;5015166;28;20081;-79
2023/03/09 10:33:25;;;;;;;4.50;1.10;;;13.10;99.90;;;;;;5017353;28;20037;-79
2023/03/09 10:36:06;;;;;;;4.15;0.82;;;13.00;99.90;;;;;;5011985;28;20689;-79
2023/03/09 10:38:36;;;;;;;4.32;1.15;;;13.00;99.90;;;;;;5020694;28;20099;-79
2023/03/09 10:41:05;;;;;;;8.02;1.20;;;12.90;99.90;;;;;;5019359;28;20138;-79
2023/03/09 10:43:35;;;;;;;3.03;1.00;;;12.90;99.90;;;;;;5014287;28;20100;-79
2023/03/09 10:46:13;;;;;;;2.10;0.80;;;12.90;99.90;;;;;;5010578;28;20053;-78
2023/03/09 10:48:44;;;;;;;2.22;0.90;;;12.80;99.90;;;;;;5009994;28;20448;-79
2023/03/09 10:51:33;;;;;;;3.67;1.27;;;12.80;99.90;;;;;;5012262;28;20502;-79
2023/03/09 10:54:27;;;;;;;3.92;1.17;;;12.70;99.90;;;;;;5016334;28;20045;-79
2023/03/09 10:56:55;;;;;;;3.97;1.15;;;12.80;99.90;;;;;;5016765;28;20050;-79
2023/03/09 10:59:24;;;;;;;7.80;1.52;;;12.80;99.90;;;;;;5016888;28;20053;-79
2023/03/09 11:01:53;;;;;;;12.30;1.77;;;12.90;99.90;;;;;;5016577;28;20042;-79
2023/03/09 11:04:29;;;;;;;3.53;1.00;;;12.90;99.90;;;;;;5014346;28;20457;-78
2023/03/09 11:07:20;;;;;;;7.00;1.30;;;13.00;99.90;;;;;;5020932;28;20045;-79
2023/03/09 11:09:48;;;;;;;5.65;1.33;;;12.90;99.90;;;;;;5016167;28;20085;-78
2023/03/09 11:12:22;;;;;;;7.35;1.45;;;12.90;99.90;;;;;;5011905;28;20122;-78
2023/03/09 11:14:53;;;;;;;6.80;1.42;;;12.80;99.90;;;;;;5013638;28;20146;-80
2023/03/09 11:17:46;;;;;;;;;;;12.80;99.90;;;;;;5014268;28;20528;-78
2023/03/09 11:20:30;;;;;;;10.07;1.73;;;12.70;99.90;;;;;;5007155;28;19976;-80
2023/03/09 11:23:25;;;;;;;6.75;1.23;;;12.80;99.90;;;;;;5013535;28;20045;-80
2023/03/09 11:26:02;;;;;;;6.80;1.75;;;12.70;99.90;;;;;;5013728;28;20042;-79
2023/03/09 11:28:34;;;;;;;8.52;1.58;;;12.60;99.90;;;;;;5011352;28;20053;-78
2023/03/09 11:31:00;;;;;;;6.55;1.70;;;12.60;99.90;;;;;;5011430;28;20125;-78
2023/03/09 11:33:30;;;;;;;7.60;1.40;;;12.50;99.90;;;;;;5009066;28;20069;-78
2023/03/09 11:35:57;;;;;;;8.57;1.30;;;12.40;99.90;;;;;;5014025;28;20120;-79
2023/03/09 11:38:26;;;;;;;6.00;1.13;;;12.30;99.90;;;;;;5011862;28;20042;-78
2023/03/09 11:41:11;;;;;;;9.82;1.67;;;12.30;99.90;;;;;;5013131;28;20565;-78
2023/03/09 11:43:42;;;;;;;6.70;1.40;;;12.30;99.90;;;;;;5010546;28;20525;-78
2023/03/09 11:46:14;;;;;;;7.95;1.70;;;12.40;99.90;;;;;;5006782;28;20052;-78
2023/03/09 11:48:48;;;;;;;9.93;2.20;;;12.40;99.90;;;;;;5011053;28;20511;-78
2023/03/09 11:51:24;;;;;;;6.28;1.20;;;12.50;99.90;;;;;;5011461;28;20049;-78
2023/03/09 11:54:20;;;;;;;8.48;1.67;;;12.60;99.90;;;;;;5013122;28;20041;-79
2023/03/09 11:56:48;;;;;;;8.70;1.90;;;12.60;99.90;;;;;;5011365;28;20057;-79
2023/03/09 11:59:38;;;;;;;7.75;1.60;;;12.70;99.90;;;;;;5015246;28;20164;-81
2023/03/09 12:02:25;;;;;;;10.80;2.33;;;12.60;99.90;;;;;;5011765;28;20532;-80
2023/03/09 12:04:53;;;;;;;4.75;1.73;;;12.60;99.90;;;;;;5009397;28;20472;-79
2023/03/09 12:07:32;;;;;;;10.00;2.58;;;12.50;99.90;;;;;;5010584;28;20048;-78
2023/03/09 12:10:09;;;;;;;7.50;1.52;;;12.50;99.90;;;;;;5010202;28;20070;-79
2023/03/09 12:12:48;;;;;;;6.32;1.52;;;12.50;99.90;;;;;;5021621;28;20133;-81
2023/03/09 12:15:48;;;;;;;9.17;1.43;;;12.60;99.90;;;;;;5007689;28;20073;-79
2023/03/09 12:18:26;;;;;;;7.82;1.33;;;12.70;99.90;;;;;;5019280;28;20082;-79
2023/03/09 12:20:55;;;;;;;6.55;1.42;;;12.90;99.90;;;;;;5009283;28;20046;-79
2023/03/09 12:23:37;;;;;;;9.32;1.92;;;13.00;99.90;;;;;;5010011;28;20050;-80
2023/03/09 12:26:21;;;;;;;8.65;1.65;;;13.10;99.90;;;;;;5007125;28;20604;-81
2023/03/09 12:29:12;;;;;;;5.47;1.50;;;13.20;99.90;;;;;;5010198;28;20041;-80
2023/03/09 12:31:39;;;;;;;7.80;1.77;;;13.40;99.90;;;;;;5028813;28;20050;-79
2023/03/09 12:34:09;;;;;;;10.15;1.80;;;13.60;99.90;;;;;;5012641;28;20509;-77
2023/03/09 12:36:40;;;;;;;8.95;1.73;;;13.70;99.90;;;;;;5021935;28;20046;-81
2023/03/09 12:39:21;;;;;;;;;;;13.90;99.90;;;;;;5018393;28;20084;-80
2023/03/09 12:41:56;;;;;;;10.57;1.85;;;14.00;99.90;;;;;;5011289;28;20377;-79
2023/03/09 12:44:42;;;;;;;6.78;1.65;;;14.20;99.90;;;;;;5015958;28;20053;-80
2023/03/09 12:47:36;;;;;;;7.68;2.15;;;14.20;99.90;;;;;;5020035;28;20042;-79
2023/03/09 12:50:20;;;;;;;10.88;1.58;;;14.30;99.90;;;;;;5015809;28;20045;-79
2023/03/09 12:53:19;;;;;;;7.53;1.85;;;14.30;99.90;;;;;;5012174;28;20042;-80
2023/03/09 12:55:54;;;;;;;9.02;2.40;;;14.50;99.90;;;;;;5015463;28;20046;-79
2023/03/09 12:58:21;;;;;;;7.88;1.92;;;14.60;99.90;;;;;;5012815;28;20057;-80
2023/03/09 13:01:02;;;;;;;6.97;1.70;;;14.70;99.90;;;;;;5011800;28;20046;-79
2023/03/09 13:03:34;;;;;;;7.85;1.83;;;14.80;99.90;;;;;;5014066;28;20068;-82
2023/03/09 13:06:22;;;;;;;6.72;1.75;;;14.90;99.90;;;;;;5015334;28;20711;-79